| Time | Avg. Air Temp | Dew Point | Avg. Rel Humidity | Avg. 2 Min Wind Speed | Max Gust Velocity | MGV Time | MGV Direction | Avg. Spot Wind Velocity |
|---|---|---|---|---|---|---|---|---|
| 2026-05-10 11:50:00 | 4° C | -2° C | 65% | 27 km/h | 31 km/h | 11:50:00 | SE | 26 km/h |
| 10:50:00 | 4° C | -2° C | 65% | 20 km/h | 24 km/h | 10:46:00 | S | 20 km/h |
| 09:50:00 | 4° C | -2° C | 69% | 15 km/h | 28 km/h | 09:47:00 | S | 20 km/h |
| 08:50:00 | 3° C | -2° C | 68% | 29 km/h | 32 km/h | 08:50:00 | S | 27 km/h |
| 07:50:00 | 3° C | -1° C | 74% | 29 km/h | 32 km/h | 07:47:00 | S | 29 km/h |
| 06:50:00 | 3° C | -1° C | 72% | 29 km/h | 34 km/h | 06:50:00 | S | 30 km/h |
| 05:50:00 | 3° C | -1° C | 73% | 26 km/h | 29 km/h | 05:48:00 | S | 27 km/h |
| 04:50:00 | 3° C | -1° C | 75% | 28 km/h | 36 km/h | 04:49:00 | S | 27 km/h |
| 03:50:00 | 3° C | -1° C | 73% | 27 km/h | 31 km/h | 03:49:00 | S | 26 km/h |
| 02:50:00 | 4° C | -1° C | 71% | 24 km/h | 34 km/h | 02:46:00 | S | 25 km/h |
| 01:50:00 | 4° C | -1° C | 69% | 28 km/h | 33 km/h | 01:46:00 | S | 27 km/h |
| 00:50:00 | 5° C | -0° C | 69% | 34 km/h | 38 km/h | 00:50:00 | S | 32 km/h |
| 23:50:00 | 5° C | -1° C | 67% | 27 km/h | 30 km/h | 23:47:00 | S | 28 km/h |
| 22:50:00 | 5° C | -1° C | 67% | 28 km/h | 33 km/h | 22:48:00 | S | 26 km/h |
| 21:50:00 | 5° C | -2° C | 63% | 27 km/h | 33 km/h | 21:50:00 | S | 27 km/h |
| 20:50:00 | 5° C | -1° C | 62% | 18 km/h | 22 km/h | 20:48:00 | S | 19 km/h |
| 19:50:00 | 5° C | -3° C | 60% | 20 km/h | 24 km/h | 19:48:00 | S | 20 km/h |
| 18:50:00 | 6° C | -3° C | 58% | 14 km/h | 18 km/h | 18:48:00 | SW | 14 km/h |
| 17:50:00 | 6° C | -1° C | 60% | 15 km/h | 24 km/h | 17:48:00 | SW | 17 km/h |
| 16:50:00 | 6° C | -1° C | 62% | 8 km/h | 16 km/h | 16:49:00 | SE | 5 km/h |
| 15:50:00 | 5° C | -2° C | 62% | 20 km/h | 24 km/h | 15:48:00 | S | 21 km/h |
| 14:50:00 | 5° C | -2° C | 60% | 15 km/h | 17 km/h | 14:48:00 | W | 14 km/h |
| 13:50:00 | 4° C | -1° C | 73% | 15 km/h | 20 km/h | 13:50:00 | SW | 13 km/h |
| 12:50:00 | 4° C | 0° C | 79% | 7 km/h | 18 km/h | 12:46:00 | SW | 10 km/h |
Subpeak Weather
| Time | Avg. Air Temp | Dew Point | Avg. Rel Humidity | Avg. 2 Min Wind Speed | Max Gust Velocity | MGV Time | MGV Direction | Avg. Spot Wind Velocity |
|---|---|---|---|---|---|---|---|---|
| 2026-05-10 11:50:00 | 4° C | -2° C | 65% | 27 km/h | 31 km/h | 11:50:00 | SE | 26 km/h |
| 11:45:00 | 4° C | -1° C | 65% | 19 km/h | 25 km/h | 11:41:00 | S | 18 km/h |
| 11:40:00 | 4° C | -2° C | 67% | 22 km/h | 25 km/h | 11:40:00 | S | 23 km/h |
| 11:35:00 | 4° C | -2° C | 65% | 19 km/h | 27 km/h | 11:33:00 | S | 18 km/h |
| 11:30:00 | 4° C | -2° C | 64% | 21 km/h | 26 km/h | 11:27:00 | S | 19 km/h |
| 11:25:00 | 4° C | -2° C | 64% | 22 km/h | 27 km/h | 11:23:00 | S | 21 km/h |
| 11:20:00 | 4° C | -2° C | 64% | 19 km/h | 24 km/h | 11:20:00 | S | 20 km/h |
| 11:15:00 | 4° C | -2° C | 64% | 20 km/h | 25 km/h | 11:13:00 | S | 21 km/h |
| 11:10:00 | 4° C | -2° C | 64% | 18 km/h | 25 km/h | 11:07:00 | S | 18 km/h |
| 11:05:00 | 4° C | -2° C | 64% | 21 km/h | 24 km/h | 11:05:00 | S | 20 km/h |
| 11:00:00 | 4° C | -2° C | 64% | 21 km/h | 24 km/h | 10:59:00 | S | 19 km/h |
| 10:55:00 | 4° C | -2° C | 65% | 24 km/h | 27 km/h | 10:54:00 | SW | 22 km/h |
| 10:50:00 | 4° C | -2° C | 65% | 20 km/h | 24 km/h | 10:46:00 | S | 20 km/h |




